Time;durP1;ratioP1;P1;durP2;ratioP2;P2;SDS_P1;SDS_P2;PMS_P1;PMS_P2;Temp;Humidity;BMP_temperature;BMP_pressure;BME280_temperature;BME280_humidity;BME280_pressure;Samples;Min_cycle;Max_cycle;Signal;HPM_P1;HPM_P2
2024/03/31 00:00:54;;;;;;;0.10;0.10;;;;;;;15.71;65.22;100964.41;5089372;28;20418;-85
2024/03/31 00:03:20;;;;;;;0.10;0.10;;;;;;;15.67;65.11;100955.09;5089364;28;20028;-85
2024/03/31 00:05:46;;;;;;;0.20;0.20;;;;;;;15.83;64.76;100985.41;5071981;28;20038;-86
2024/03/31 00:08:11;;;;;;;0.10;0.10;;;;;;;15.78;64.49;100978.72;5072513;28;20024;-85
2024/03/31 00:10:37;;;;;;;0.10;0.10;;;;;;;15.71;64.64;100950.53;5072414;28;20508;-86
2024/03/31 00:13:02;;;;;;;0.10;0.10;;;;;;;15.74;64.22;100961.59;5072731;28;20505;-85
2024/03/31 00:15:28;;;;;;;0.10;0.10;;;;;;;15.75;63.91;100963.28;5075246;28;20532;-85
2024/03/31 00:17:54;;;;;;;0.10;0.10;;;;;;;15.66;65.25;100973.47;5093154;28;20573;-86
2024/03/31 00:20:20;;;;;;;0.10;0.10;;;;;;;15.67;64.73;100969.91;5075958;28;20109;-85
2024/03/31 00:22:46;;;;;;;0.20;0.20;;;;;;;15.54;64.33;100959.44;5092763;28;20481;-85
2024/03/31 00:25:12;;;;;;;0.20;0.20;;;;;;;15.54;64.34;100959.44;5093065;28;20048;-85
2024/03/31 00:27:37;;;;;;;0.20;0.20;;;;;;;15.57;64.53;100958.38;5059281;28;20031;-85
2024/03/31 00:30:03;;;;;;;0.10;0.10;;;;;;;15.54;64.35;100975.06;5093087;28;20032;-85
2024/03/31 00:32:29;;;;;;;0.10;0.10;;;;;;;15.53;64.17;100978.59;5092983;28;20035;-85
2024/03/31 00:34:54;;;;;;;0.10;0.10;;;;;;;15.41;64.37;100971.56;5075846;28;20089;-85
2024/03/31 00:37:20;;;;;;;0.10;0.10;;;;;;;15.41;64.64;100976.75;5076043;28;20028;-85
2024/03/31 00:39:46;;;;;;;0.10;0.10;;;;;;;15.29;64.68;100985.38;5092619;28;20463;-85
2024/03/31 00:42:11;;;;;;;0.10;0.10;;;;;;;15.29;64.35;100965.34;5075913;28;20116;-85
2024/03/31 00:44:37;;;;;;;0.10;0.10;;;;;;;15.37;64.28;100985.72;5076170;28;20495;-85
2024/03/31 00:47:03;;;;;;;0.10;0.10;;;;;;;15.17;64.20;100966.97;5075633;28;20024;-85
2024/03/31 00:49:28;;;;;;;0.10;0.10;;;;;;;15.12;65.46;100986.41;5092627;28;20024;-86
2024/03/31 00:51:54;;;;;;;0.20;0.20;;;;;;;15.10;65.70;100988.28;5059059;28;20047;-86
2024/03/31 00:54:19;;;;;;;0.10;0.10;;;;;;;15.12;65.32;100984.63;5092429;28;20024;-86
2024/03/31 00:56:45;;;;;;;0.10;0.10;;;;;;;15.00;64.73;100959.34;5075612;28;20089;-86
2024/03/31 00:59:10;;;;;;;0.10;0.10;;;;;;;15.14;65.18;100988.00;5092519;28;20024;-85
2024/03/31 01:01:36;;;;;;;0.10;0.10;;;;;;;15.14;65.42;100988.00;5075619;28;20448;-85
2024/03/31 01:04:01;;;;;;;0.10;0.10;;;;;;;15.12;65.29;100976.81;5075001;28;20031;-85
2024/03/31 01:06:27;;;;;;;0.10;0.10;;;;;;;15.15;65.63;100991.44;5075218;28;20024;-85
2024/03/31 01:08:53;;;;;;;0.10;0.10;;;;;;;15.04;66.14;100994.69;5075455;28;20028;-85
2024/03/31 01:11:18;;;;;;;0.10;0.10;;;;;;;14.95;65.66;100987.47;5091969;28;20070;-85
2024/03/31 01:13:45;;;;;;;0.20;0.20;;;;;;;14.86;66.34;100972.41;5075065;28;20036;-85
2024/03/31 01:16:10;;;;;;;0.10;0.10;;;;;;;14.97;65.71;100990.81;5058619;28;20030;-85
2024/03/31 01:18:36;;;;;;;0.10;0.10;;;;;;;14.83;66.09;100993.41;5058179;28;20032;-85
2024/03/31 01:21:02;;;;;;;0.10;0.10;;;;;;;14.84;65.74;100988.09;5075218;28;20032;-85
2024/03/31 01:23:29;;;;;;;0.10;0.10;;;;;;;14.84;65.66;100989.88;5058255;28;20044;-84
2024/03/31 01:25:58;;;;;;;0.17;0.17;;;;;;;14.76;65.85;100994.72;5074519;28;20021;-86
2024/03/31 01:28:24;;;;;;;0.10;0.10;;;;;;;14.69;65.46;100991.66;5074672;28;20047;-84
2024/03/31 01:30:49;;;;;;;0.10;0.10;;;;;;;14.71;65.45;101010.63;5058314;28;20059;-85
2024/03/31 01:33:15;;;;;;;0.10;0.10;;;;;;;14.75;65.64;101000.84;5057920;28;20035;-85
2024/03/31 01:35:40;;;;;;;0.10;0.10;;;;;;;14.63;64.88;100985.03;5058161;28;20032;-85
2024/03/31 01:38:06;;;;;;;0.10;0.10;;;;;;;14.68;64.96;100982.16;5091559;28;20031;-85
2024/03/31 01:40:31;;;;;;;0.10;0.10;;;;;;;14.81;64.82;101003.09;5074656;28;20035;-85
2024/03/31 01:42:57;;;;;;;0.10;0.10;;;;;;;14.71;64.95;100999.38;5091780;28;20024;-85
2024/03/31 01:45:22;;;;;;;0.20;0.20;;;;;;;14.71;65.51;101007.19;5075085;28;20020;-85
2024/03/31 01:47:48;;;;;;;0.10;0.10;;;;;;;14.72;65.24;100993.22;5090845;28;20032;-84
2024/03/31 01:50:13;;;;;;;0.10;0.10;;;;;;;14.76;65.69;101007.75;5074739;28;20095;-85
2024/03/31 01:52:39;;;;;;;0.10;0.10;;;;;;;14.69;65.94;101003.84;5074641;28;20032;-84
2024/03/31 01:55:04;;;;;;;0.20;0.20;;;;;;;14.60;65.66;100990.44;5074919;28;20031;-86
2024/03/31 01:57:30;;;;;;;0.10;0.10;;;;;;;14.74;65.61;101012.19;5091402;28;20413;-84
2024/03/31 01:59:55;;;;;;;0.20;0.20;;;;;;;14.72;65.92;101016.66;5091324;28;20019;-84
2024/03/31 02:02:21;;;;;;;0.10;0.10;;;;;;;14.70;66.35;101018.53;5074275;28;20122;-85
2024/03/31 02:04:46;;;;;;;0.10;0.10;;;;;;;14.60;66.49;101002.63;5074305;28;20512;-85
2024/03/31 02:07:12;;;;;;;0.10;0.10;;;;;;;14.66;66.11;101011.84;5090979;28;20051;-85
2024/03/31 02:09:38;;;;;;;0.20;0.20;;;;;;;14.69;66.68;101011.66;5074358;28;20023;-86
2024/03/31 02:12:03;;;;;;;0.20;0.20;;;;;;;14.73;66.99;101023.53;5074230;28;20036;-85
2024/03/31 02:14:29;;;;;;;0.10;0.10;;;;;;;14.54;67.68;101014.22;5074116;28;20031;-85
2024/03/31 02:16:55;;;;;;;0.20;0.20;;;;;;;14.58;67.60;101026.13;5074085;28;20059;-85
2024/03/31 02:19:23;;;;;;;0.10;0.10;;;;;;;14.47;67.88;101020.72;5091125;28;20028;-86
2024/03/31 02:21:49;;;;;;;0.20;0.20;;;;;;;14.38;68.26;101010.81;5074388;28;20028;-84
2024/03/31 02:24:14;;;;;;;0.20;0.20;;;;;;;14.36;68.50;101010.09;5057079;28;20048;-85
2024/03/31 02:26:40;;;;;;;0.20;0.20;;;;;;;14.38;68.49;101010.81;5073393;28;20024;-85
2024/03/31 02:29:05;;;;;;;0.10;0.10;;;;;;;14.52;67.87;101034.31;5073755;28;20036;-85
2024/03/31 02:31:31;;;;;;;0.10;0.10;;;;;;;14.39;68.41;101030.72;5091644;28;20094;-85
2024/03/31 02:33:56;;;;;;;0.20;0.20;;;;;;;14.45;68.47;101040.78;5057158;28;20024;-85
2024/03/31 02:36:22;;;;;;;0.20;0.20;;;;;;;14.51;68.72;101040.44;5091799;28;20039;-85
2024/03/31 02:38:47;;;;;;;0.10;0.10;;;;;;;14.44;68.72;101023.47;5073250;28;20039;-84
2024/03/31 02:41:13;;;;;;;0.10;0.10;;;;;;;14.48;69.09;101035.41;5090687;28;20027;-84
2024/03/31 02:43:38;;;;;;;0.10;0.10;;;;;;;14.25;69.12;101018.50;5073591;28;20028;-85
2024/03/31 02:46:04;;;;;;;0.10;0.10;;;;;;;14.41;68.66;101044.47;5073107;28;20035;-85
2024/03/31 02:48:29;;;;;;;0.20;0.20;;;;;;;14.41;68.92;101041.03;5090218;28;20078;-85
2024/03/31 02:50:55;;;;;;;0.10;0.10;;;;;;;14.32;68.44;101024.19;5090395;28;20020;-84
2024/03/31 02:53:20;;;;;;;0.10;0.10;;;;;;;14.30;68.34;101023.44;5073304;28;20024;-85
2024/03/31 02:55:46;;;;;;;0.20;0.20;;;;;;;14.41;68.44;101033.22;5056751;28;20062;-85
2024/03/31 02:58:11;;;;;;;0.10;0.10;;;;;;;14.46;68.01;101052.91;5073109;28;20051;-85
2024/03/31 03:00:37;;;;;;;0.20;0.20;;;;;;;14.42;68.10;101046.16;5089725;28;20024;-85
2024/03/31 03:03:03;;;;;;;0.20;0.20;;;;;;;14.50;68.09;101069.16;5090454;28;20463;-85
2024/03/31 03:05:28;;;;;;;0.10;0.10;;;;;;;14.34;69.04;101048.34;5073316;28;20177;-86
2024/03/31 03:07:54;;;;;;;0.10;0.10;;;;;;;14.37;68.68;101040.38;5073001;28;20028;-84
2024/03/31 03:10:19;;;;;;;0.20;0.20;;;;;;;14.33;68.99;101055.31;5073217;28;20032;-86
2024/03/31 03:12:48;;;;;;;0.10;0.10;;;;;;;14.09;69.98;101041.13;5056301;28;20067;-86
2024/03/31 03:15:13;;;;;;;0.10;0.10;;;;;;;14.13;68.87;101049.59;5089429;28;20028;-84
2024/03/31 03:17:39;;;;;;;0.10;0.10;;;;;;;14.13;68.71;101070.41;5072855;28;20032;-86
2024/03/31 03:20:05;;;;;;;0.10;0.10;;;;;;;14.00;68.08;101065.91;5072993;28;20032;-85
2024/03/31 03:22:34;;;;;;;0.10;0.10;;;;;;;14.05;67.37;101079.47;5056119;28;20493;-84
2024/03/31 03:24:59;;;;;;;0.10;0.10;;;;;;;13.87;67.62;101062.31;5073088;28;20044;-85
2024/03/31 03:27:25;;;;;;;0.10;0.10;;;;;;;13.67;67.59;101055.63;5072645;28;20386;-85
2024/03/31 03:29:52;;;;;;;0.10;0.10;;;;;;;13.76;68.42;101073.31;5089427;28;20031;-87
2024/03/31 03:32:17;;;;;;;0.10;0.10;;;;;;;13.71;68.42;101079.69;5073012;28;20024;-86
2024/03/31 03:34:43;;;;;;;0.10;0.10;;;;;;;13.69;67.70;101086.72;5089527;28;20049;-85
2024/03/31 03:37:09;;;;;;;0.20;0.20;;;;;;;13.61;67.49;101068.09;5072487;28;20020;-85
2024/03/31 03:39:35;;;;;;;0.10;0.10;;;;;;;13.65;66.98;101085.19;5055979;28;20116;-85
2024/03/31 03:42:04;;;;;;;0.15;0.15;;;;;;;13.58;67.61;101083.88;5089435;28;20118;-85
2024/03/31 03:44:30;;;;;;;0.10;0.10;;;;;;;13.70;67.46;101093.59;5072725;28;20020;-85
2024/03/31 03:46:55;;;;;;;0.10;0.10;;;;;;;13.49;67.23;101070.44;5072669;28;20035;-85
2024/03/31 03:49:21;;;;;;;0.20;0.20;;;;;;;13.56;67.31;101085.69;5088843;28;20020;-85
2024/03/31 03:51:46;;;;;;;0.10;0.10;;;;;;;13.59;67.69;101106.34;5089763;28;20063;-85
2024/03/31 03:54:12;;;;;;;0.20;0.20;;;;;;;13.52;67.67;101105.00;5072725;28;20024;-85
2024/03/31 03:56:40;;;;;;;0.10;0.10;;;;;;;13.33;68.00;101087.78;5089346;28;20040;-85
2024/03/31 03:59:06;;;;;;;0.20;0.20;;;;;;;13.50;67.86;101110.28;5089261;28;20035;-85
2024/03/31 04:01:31;;;;;;;0.10;0.10;;;;;;;13.51;67.75;101121.50;5072452;28;20083;-85
2024/03/31 04:03:57;;;;;;;0.10;0.10;;;;;;;13.55;67.42;101130.81;5072628;28;20024;-85
2024/03/31 04:06:22;;;;;;;0.10;0.10;;;;;;;13.48;67.42;101118.16;5072509;28;20066;-85
2024/03/31 04:08:48;;;;;;;0.20;0.20;;;;;;;13.59;67.41;101127.97;5072045;28;20031;-86
2024/03/31 04:11:22;;;;;;;0.10;0.10;;;;;;;13.56;67.44;101119.50;5072284;28;20036;-85
2024/03/31 04:13:51;;;;;;;0.10;0.10;;;;;;;13.53;67.57;101111.88;5055405;28;20035;-85
2024/03/31 04:16:16;;;;;;;0.20;0.20;;;;;;;13.56;67.84;101129.88;5072134;28;20128;-85
2024/03/31 04:18:42;;;;;;;0.20;0.20;;;;;;;13.58;67.77;101120.28;5089208;28;20492;-85
2024/03/31 04:21:08;;;;;;;0.10;0.10;;;;;;;13.62;67.55;101130.41;5072305;28;20028;-84
2024/03/31 04:23:34;;;;;;;0.10;0.10;;;;;;;13.62;67.93;101129.56;5072100;28;20438;-85
2024/03/31 04:25:59;;;;;;;0.10;0.10;;;;;;;13.57;67.95;101131.56;5072194;28;20027;-84
2024/03/31 04:28:25;;;;;;;0.10;0.10;;;;;;;13.57;67.96;101129.84;5089017;28;20043;-85
2024/03/31 04:30:50;;;;;;;0.10;0.10;;;;;;;13.64;68.07;101125.13;5088998;28;20024;-85
2024/03/31 04:33:16;;;;;;;0.10;0.10;;;;;;;13.72;68.18;101133.34;5055649;28;20031;-85
2024/03/31 04:35:41;;;;;;;0.20;0.20;;;;;;;13.67;67.66;101135.38;5072412;28;20028;-84
2024/03/31 04:38:07;;;;;;;0.10;0.10;;;;;;;13.67;67.88;101141.41;5089097;28;20078;-85
2024/03/31 04:40:33;;;;;;;0.20;0.20;;;;;;;13.63;67.74;101144.25;5072030;28;20039;-85
2024/03/31 04:42:58;;;;;;;0.13;0.13;;;;;;;13.54;67.99;101134.34;5089095;28;20032;-85
2024/03/31 04:45:24;;;;;;;0.20;0.20;;;;;;;13.63;67.75;101152.03;5088742;28;20111;-85
2024/03/31 04:47:50;;;;;;;0.20;0.20;;;;;;;13.60;68.00;101149.63;5071802;28;20474;-84
2024/03/31 04:50:15;;;;;;;0.10;0.10;;;;;;;13.55;68.16;101144.66;5072080;28;20410;-85
2024/03/31 04:52:41;;;;;;;0.15;0.15;;;;;;;13.62;68.49;101155.56;5072052;28;20413;-85
2024/03/31 04:55:07;;;;;;;0.10;0.10;;;;;;;13.66;68.35;101162.28;5072042;28;20066;-84
2024/03/31 04:57:32;;;;;;;0.20;0.20;;;;;;;13.55;69.31;101152.44;5088363;28;20060;-85
2024/03/31 04:59:58;;;;;;;0.20;0.20;;;;;;;13.69;69.06;101164.72;5071744;28;20081;-85
2024/03/31 05:02:23;;;;;;;0.20;0.20;;;;;;;13.63;68.81;101157.25;5074226;28;20020;-86
2024/03/31 05:04:49;;;;;;;0.20;0.20;;;;;;;13.59;68.99;101147.94;5075793;28;20028;-85
2024/03/31 05:07:14;;;;;;;0.10;0.10;;;;;;;13.69;68.53;101155.16;5092330;28;20051;-85
2024/03/31 05:09:40;;;;;;;0.20;0.20;;;;;;;13.73;68.52;101145.44;5092531;28;20055;-85
2024/03/31 05:12:06;;;;;;;0.20;0.20;;;;;;;13.75;68.48;101138.38;5091633;28;20027;-85
2024/03/31 05:14:31;;;;;;;0.20;0.20;;;;;;;13.85;68.19;101142.16;5075135;28;20017;-85
2024/03/31 05:16:57;;;;;;;0.17;0.17;;;;;;;13.90;67.98;101132.34;5075076;28;20070;-85
2024/03/31 05:19:23;;;;;;;0.10;0.10;;;;;;;13.92;68.21;101134.88;5092219;28;20051;-86
2024/03/31 05:21:49;;;;;;;0.20;0.20;;;;;;;14.04;68.82;101145.44;5058566;28;20486;-85
2024/03/31 05:24:15;;;;;;;0.20;0.20;;;;;;;14.03;69.25;101146.38;5091706;28;20131;-85
2024/03/31 05:26:40;;;;;;;0.10;0.10;;;;;;;14.19;70.33;101148.13;5074718;28;20028;-85
2024/03/31 05:29:06;;;;;;;0.10;0.10;;;;;;;14.14;69.80;101142.31;5074961;28;20111;-84
2024/03/31 05:31:31;;;;;;;0.20;0.20;;;;;;;14.28;68.90;101147.63;5074819;28;20115;-85
2024/03/31 05:33:58;;;;;;;0.10;0.10;;;;;;;14.37;68.55;101154.06;5091926;28;20109;-84
2024/03/31 05:36:24;;;;;;;0.10;0.10;;;;;;;14.35;68.74;101144.59;5074940;28;20020;-85
2024/03/31 05:38:49;;;;;;;0.10;0.10;;;;;;;14.42;68.67;101159.84;5075178;28;20035;-85
2024/03/31 05:41:15;;;;;;;0.10;0.10;;;;;;;14.55;68.55;101161.72;5074592;28;20020;-85
2024/03/31 05:43:40;;;;;;;0.20;0.20;;;;;;;14.44;68.39;101138.00;5091642;28;20035;-85
2024/03/31 05:46:07;;;;;;;0.20;0.20;;;;;;;14.72;67.32;101167.72;5074604;28;20032;-85
2024/03/31 05:48:32;;;;;;;0.20;0.20;;;;;;;14.78;67.32;101162.16;5091336;28;20020;-85
2024/03/31 05:50:58;;;;;;;0.20;0.20;;;;;;;14.83;66.90;101170.53;5074688;28;20024;-85
2024/03/31 05:53:24;;;;;;;0.20;0.20;;;;;;;14.97;66.40;101174.94;5091487;28;20028;-85
2024/03/31 05:55:49;;;;;;;0.20;0.20;;;;;;;15.05;66.30;101173.56;5074398;28;20118;-85
2024/03/31 05:58:15;;;;;;;0.10;0.10;;;;;;;15.13;66.01;101171.34;5074709;28;20071;-85
2024/03/31 06:00:40;;;;;;;0.10;0.10;;;;;;;15.18;66.10;101171.91;5091310;28;20024;-85
2024/03/31 06:03:06;;;;;;;0.20;0.20;;;;;;;15.34;65.33;101187.50;5091390;28;20028;-85
2024/03/31 06:05:31;;;;;;;0.10;0.10;;;;;;;15.39;65.44;101174.16;5074589;28;20035;-85
2024/03/31 06:07:57;;;;;;;0.20;0.20;;;;;;;15.56;64.80;101184.41;5074345;28;20028;-85
2024/03/31 06:10:22;;;;;;;0.15;0.15;;;;;;;15.69;64.35;101177.53;5073956;28;20036;-85
2024/03/31 06:12:48;;;;;;;0.10;0.10;;;;;;;15.78;63.83;101176.16;5057038;28;20035;-85
2024/03/31 06:15:13;;;;;;;0.10;0.10;;;;;;;15.92;63.64;101173.50;5057475;28;20038;-85
2024/03/31 06:17:42;;;;;;;0.20;0.20;;;;;;;15.82;64.25;101167.19;5057469;28;20111;-85
2024/03/31 06:20:08;;;;;;;0.20;0.20;;;;;;;16.01;64.09;101195.56;5058299;28;20520;-85
2024/03/31 06:22:43;;;;;;;0.20;0.20;;;;;;;16.02;63.37;101168.53;5073728;28;20024;-85
2024/03/31 06:25:08;;;;;;;0.13;0.13;;;;;;;16.26;63.39;101187.88;5090712;28;20063;-85
2024/03/31 06:27:34;;;;;;;0.20;0.20;;;;;;;16.38;63.23;101207.16;5073947;28;20028;-85
2024/03/31 06:30:00;;;;;;;0.20;0.20;;;;;;;16.49;62.81;101198.63;5057054;28;20024;-85
2024/03/31 06:32:26;;;;;;;0.10;0.10;;;;;;;16.66;62.32;101202.75;5073989;28;20704;-84
2024/03/31 06:34:51;;;;;;;0.10;0.10;;;;;;;16.77;62.73;101193.31;5057093;28;20024;-85
2024/03/31 06:37:20;;;;;;;0.10;0.10;;;;;;;16.86;61.37;101186.66;5073419;28;20067;-85
2024/03/31 06:39:45;;;;;;;0.20;0.20;;;;;;;16.98;60.26;101190.22;5074246;28;20078;-85
2024/03/31 06:42:11;;;;;;;0.20;0.20;;;;;;;17.01;60.32;101184.78;5073719;28;20036;-85
2024/03/31 06:44:37;;;;;;;0.20;0.20;;;;;;;17.12;59.80;101197.97;5073719;28;20514;-85
2024/03/31 06:47:03;;;;;;;0.15;0.15;;;;;;;17.16;59.56;101178.53;5056766;28;20059;-86
2024/03/31 06:49:28;;;;;;;0.20;0.20;;;;;;;17.28;59.04;101188.16;5073489;28;20024;-85
2024/03/31 06:51:54;;;;;;;0.20;0.20;;;;;;;17.39;58.41;101175.16;5091022;28;20032;-85
2024/03/31 06:54:19;;;;;;;0.20;0.20;;;;;;;17.48;58.20;101184.16;5090342;28;20024;-85
2024/03/31 06:56:45;;;;;;;0.10;0.10;;;;;;;17.48;57.76;101164.06;5073243;28;20039;-86
2024/03/31 06:59:10;;;;;;;0.10;0.10;;;;;;;17.67;57.40;101170.66;5089953;28;20024;-85
2024/03/31 07:01:36;;;;;;;0.20;0.20;;;;;;;17.73;56.74;101167.66;5089987;28;20111;-85
2024/03/31 07:04:01;;;;;;;0.20;0.20;;;;;;;17.92;56.80;101165.41;5073145;28;20023;-85
2024/03/31 07:06:27;;;;;;;0.20;0.20;;;;;;;17.92;55.76;101157.56;5072488;28;20032;-85
2024/03/31 07:08:53;;;;;;;0.10;0.10;;;;;;;17.97;55.35;101165.06;5056353;28;20020;-85
2024/03/31 07:11:18;;;;;;;0.10;0.10;;;;;;;18.09;55.32;101160.72;5089556;28;20058;-85
2024/03/31 07:13:44;;;;;;;0.15;0.15;;;;;;;18.22;55.38;101148.44;5073402;28;20024;-85
2024/03/31 07:16:09;;;;;;;0.10;0.10;;;;;;;18.28;56.02;101158.44;5073136;28;20054;-84
2024/03/31 07:18:35;;;;;;;0.10;0.10;;;;;;;18.31;56.82;101163.47;5056168;28;20039;-85
2024/03/31 07:21:00;;;;;;;0.20;0.20;;;;;;;18.28;56.72;101148.81;5089554;28;20032;-85
2024/03/31 07:23:26;;;;;;;0.10;0.10;;;;;;;18.38;56.10;101154.22;5072524;28;20059;-84
2024/03/31 07:25:51;;;;;;;0.20;0.20;;;;;;;18.37;56.39;101168.25;5089662;28;20482;-85
2024/03/31 07:28:17;;;;;;;0.20;0.20;;;;;;;18.30;56.35;101157.41;5072903;28;20510;-85
2024/03/31 07:30:43;;;;;;;0.10;0.10;;;;;;;18.50;56.49;101173.44;5055918;28;20027;-85
2024/03/31 07:33:08;;;;;;;0.20;0.20;;;;;;;18.50;56.11;101168.22;5056291;28;20028;-85
2024/03/31 07:35:34;;;;;;;0.20;0.20;;;;;;;18.54;56.00;101148.69;5072586;28;20024;-84
2024/03/31 07:37:59;;;;;;;0.10;0.10;;;;;;;18.72;55.88;101154.38;5089727;28;20033;-85
2024/03/31 07:40:25;;;;;;;0.20;0.20;;;;;;;18.86;55.31;101177.75;5056054;28;20028;-85
2024/03/31 07:42:50;;;;;;;0.20;0.20;;;;;;;19.01;54.50;101174.00;5089515;28;20405;-84
2024/03/31 07:45:16;;;;;;;0.20;0.20;;;;;;;19.11;54.48;101168.91;5072544;28;20489;-84
2024/03/31 07:47:41;;;;;;;0.10;0.10;;;;;;;19.25;53.69;101166.03;5089483;28;20393;-85
2024/03/31 07:50:07;;;;;;;0.10;0.10;;;;;;;19.38;53.40;101160.72;5072248;28;20028;-85
2024/03/31 07:52:32;;;;;;;0.10;0.10;;;;;;;19.44;52.71;101162.84;5055481;28;20501;-85
2024/03/31 07:54:58;;;;;;;0.20;0.20;;;;;;;19.38;53.46;101171.19;5089480;28;20108;-85
2024/03/31 07:57:23;;;;;;;0.10;0.10;;;;;;;19.34;53.13;101164.50;5072937;28;20028;-85
2024/03/31 07:59:49;;;;;;;0.13;0.13;;;;;;;19.19;53.54;101151.63;5072636;28;20031;-85
2024/03/31 08:02:14;;;;;;;0.20;0.20;;;;;;;19.40;53.86;101164.03;5089629;28;20025;-85
2024/03/31 08:04:40;;;;;;;0.20;0.20;;;;;;;19.47;52.84;101154.75;5089088;28;20047;-85
2024/03/31 08:07:06;;;;;;;0.20;0.20;;;;;;;19.57;52.84;101160.97;5072560;28;20071;-86
2024/03/31 08:09:32;;;;;;;0.20;0.20;;;;;;;19.53;52.84;101170.00;5089114;28;20477;-85
2024/03/31 08:11:57;;;;;;;0.20;0.20;;;;;;;19.76;52.84;101166.47;5072206;28;20055;-85
2024/03/31 08:14:23;;;;;;;0.20;0.20;;;;;;;19.87;52.65;101168.22;5090301;28;20032;-85
2024/03/31 08:16:48;;;;;;;0.10;0.10;;;;;;;20.02;51.96;101171.41;5055597;28;20024;-85
2024/03/31 08:19:14;;;;;;;0.20;0.20;;;;;;;19.97;52.07;101132.41;5089214;28;20115;-86
2024/03/31 08:21:39;;;;;;;0.20;0.20;;;;;;;20.25;51.39;101167.75;5090525;28;20032;-85
2024/03/31 08:24:05;;;;;;;0.17;0.17;;;;;;;20.33;50.94;101157.47;5072207;28;20986;-85
2024/03/31 08:26:31;;;;;;;0.20;0.20;;;;;;;20.36;51.67;101139.81;5055552;28;20039;-85
2024/03/31 08:28:57;;;;;;;0.20;0.20;;;;;;;20.56;51.55;101136.41;5071905;28;20032;-85
2024/03/31 08:31:22;;;;;;;0.20;0.20;;;;;;;20.68;51.44;101122.22;5072358;28;20630;-85
2024/03/31 08:33:48;;;;;;;0.20;0.20;;;;;;;20.89;50.80;101130.09;5055144;28;20032;-85
2024/03/31 08:36:13;;;;;;;0.20;0.20;;;;;;;21.03;50.23;101131.56;5091557;28;20028;-85
2024/03/31 08:38:39;;;;;;;0.20;0.20;;;;;;;21.03;50.74;101121.03;5075969;28;20028;-85
2024/03/31 08:41:09;;;;;;;0.20;0.20;;;;;;;21.12;50.82;101131.59;5075894;28;20038;-85
2024/03/31 08:43:38;;;;;;;0.20;0.20;;;;;;;21.22;51.10;101128.19;5076010;28;20095;-86
2024/03/31 08:46:07;;;;;;;0.20;0.20;;;;;;;21.27;49.86;101137.41;5075886;28;20668;-85
2024/03/31 08:48:35;;;;;;;0.20;0.20;;;;;;;21.23;49.41;101146.47;5075201;28;20021;-86
2024/03/31 08:51:01;;;;;;;0.10;0.10;;;;;;;21.26;49.50;101137.50;5059260;28;20086;-85
2024/03/31 08:53:26;;;;;;;0.10;0.10;;;;;;;21.37;49.54;101140.09;5075537;28;20454;-85
2024/03/31 08:55:52;;;;;;;0.20;0.20;;;;;;;21.32;49.71;101132.56;5059069;28;20093;-85
2024/03/31 08:58:17;;;;;;;0.20;0.20;;;;;;;21.38;49.64;101132.03;5075416;28;20028;-86
2024/03/31 09:00:43;;;;;;;0.20;0.20;;;;;;;21.32;49.78;101132.56;5092036;28;20027;-85
2024/03/31 09:03:09;;;;;;;0.20;0.20;;;;;;;21.28;49.97;101141.69;5075318;28;20031;-85
2024/03/31 09:05:38;;;;;;;0.20;0.20;;;;;;;21.36;49.58;101148.94;5058760;28;20020;-85
2024/03/31 09:08:04;;;;;;;0.10;0.10;;;;;;;21.50;50.09;101147.75;5075093;28;20976;-85
2024/03/31 09:10:29;;;;;;;0.20;0.20;;;;;;;21.31;50.23;101109.84;5074911;28;20028;-85
2024/03/31 09:12:55;;;;;;;0.20;0.20;;;;;;;21.47;50.94;101126.00;5093499;28;20059;-85
2024/03/31 09:15:20;;;;;;;0.20;0.20;;;;;;;21.47;50.63;101147.03;5075235;28;20024;-85
2024/03/31 09:17:47;;;;;;;0.20;0.20;;;;;;;21.46;50.05;101128.75;5091888;28;20047;-85
2024/03/31 09:20:12;;;;;;;0.15;0.15;;;;;;;21.42;49.52;101141.34;5074981;28;20113;-85
2024/03/31 09:22:41;;;;;;;0.20;0.20;;;;;;;21.38;50.22;101152.28;5091813;28;20512;-85
2024/03/31 09:25:10;;;;;;;0.20;0.20;;;;;;;21.28;49.60;101167.19;5074882;28;20130;-85
2024/03/31 09:27:36;;;;;;;0.20;0.20;;;;;;;21.31;49.88;101157.22;5075067;28;20482;-85
2024/03/31 09:30:04;;;;;;;0.20;0.20;;;;;;;21.45;49.77;101170.03;5074649;28;20032;-85
2024/03/31 09:32:30;;;;;;;0.20;0.20;;;;;;;21.52;49.41;101164.22;5058179;28;20115;-85
2024/03/31 09:34:55;;;;;;;0.20;0.20;;;;;;;21.69;48.75;101177.59;5058162;28;20173;-85
2024/03/31 09:37:21;;;;;;;0.20;0.20;;;;;;;21.72;48.96;101179.97;5091767;28;20153;-85
2024/03/31 09:39:46;;;;;;;0.20;0.20;;;;;;;21.86;49.11;101183.22;5058031;28;20032;-85
2024/03/31 09:42:12;;;;;;;0.20;0.20;;;;;;;21.99;47.91;101179.34;5074799;28;20043;-85
2024/03/31 09:44:42;;;;;;;0.20;0.20;;;;;;;22.15;47.92;101159.59;5058027;28;20031;-86
2024/03/31 09:47:37;;;;;;;0.20;0.20;;;;;;;22.18;48.75;101152.22;5057407;28;20489;-85
2024/03/31 09:50:15;;;;;;;0.10;0.10;;;;;;;22.15;48.60;101146.41;5091217;28;20539;-85
2024/03/31 09:52:46;;;;;;;0.10;0.10;;;;;;;22.16;47.88;101151.53;5092767;28;20020;-85
2024/03/31 09:55:13;;;;;;;0.13;0.13;;;;;;;22.24;47.13;101153.50;5058661;28;20089;-86
2024/03/31 09:57:43;;;;;;;0.10;0.10;;;;;;;22.22;47.41;101152.78;5074561;28;20107;-85
2024/03/31 10:00:13;;;;;;;0.10;0.10;;;;;;;22.31;47.17;101163.34;5090814;28;20525;-85
2024/03/31 10:02:45;;;;;;;0.10;0.10;;;;;;;22.35;48.17;101166.53;5074561;28;20106;-85
2024/03/31 10:05:11;;;;;;;0.20;0.20;;;;;;;22.48;48.02;101167.09;5075423;28;20197;-86
2024/03/31 10:07:37;;;;;;;0.10;0.10;;;;;;;22.47;46.47;101165.44;5057664;28;20544;-85
2024/03/31 10:10:03;;;;;;;0.10;0.10;;;;;;;22.57;46.73;101168.06;5074479;28;20042;-85
2024/03/31 10:12:30;;;;;;;0.20;0.20;;;;;;;22.60;46.91;101154.59;5057590;28;20028;-85
2024/03/31 10:14:56;;;;;;;0.20;0.20;;;;;;;22.73;45.84;101152.50;5090582;28;20165;-87
2024/03/31 10:17:22;;;;;;;0.20;0.20;;;;;;;22.78;45.97;101149.44;5057526;28;20533;-85
2024/03/31 10:19:47;;;;;;;0.20;0.20;;;;;;;22.79;46.16;101130.00;5057431;28;20035;-86
2024/03/31 10:22:13;;;;;;;0.20;0.20;;;;;;;22.90;45.93;101149.16;5074195;28;20063;-86
2024/03/31 10:24:39;;;;;;;0.20;0.20;;;;;;;22.92;46.77;101135.84;5073533;28;20135;-86
2024/03/31 10:27:04;;;;;;;0.20;0.20;;;;;;;23.08;46.16;101141.34;5056863;28;20178;-85
2024/03/31 10:29:30;;;;;;;0.20;0.20;;;;;;;23.06;46.18;101142.47;5073773;28;20035;-85
2024/03/31 10:31:55;;;;;;;0.20;0.20;;;;;;;23.10;46.33;101128.84;5073735;28;20028;-85
2024/03/31 10:34:21;;;;;;;0.20;0.20;;;;;;;23.23;45.18;101122.41;5090701;28;20048;-86
2024/03/31 10:36:46;;;;;;;0.20;0.20;;;;;;;23.30;47.01;101108.47;5090422;28;20032;-85
2024/03/31 10:39:12;;;;;;;0.20;0.20;;;;;;;23.21;46.66;101077.69;5057139;28;20028;-86
2024/03/31 10:41:38;;;;;;;0.20;0.20;;;;;;;23.39;46.44;101098.84;5073734;28;20024;-86
2024/03/31 10:44:03;;;;;;;0.20;0.20;;;;;;;23.58;46.27;101096.09;5056496;28;20417;-86
2024/03/31 10:46:29;;;;;;;0.20;0.20;;;;;;;23.70;46.24;101094.97;5073585;28;20504;-86
2024/03/31 10:49:00;;;;;;;0.20;0.20;;;;;;;23.81;45.37;101070.16;5073535;28;20069;-86
2024/03/31 10:51:26;;;;;;;0.20;0.20;;;;;;;24.14;45.14;101075.72;5073509;28;20082;-86
2024/03/31 10:53:51;;;;;;;0.20;0.20;;;;;;;24.11;45.24;101076.88;5073586;28;20444;-86
2024/03/31 10:56:29;;;;;;;0.20;0.20;;;;;;;24.19;45.12;101078.75;5056807;28;20051;-86
2024/03/31 10:59:07;;;;;;;0.20;0.20;;;;;;;24.42;44.82;101087.06;5090283;28;20440;-86
2024/03/31 11:01:42;;;;;;;0.20;0.20;;;;;;;24.44;43.31;101075.34;5090025;28;20028;-85
2024/03/31 11:04:19;;;;;;;0.20;0.20;;;;;;;24.55;43.51;101084.84;5090335;28;20020;-85
2024/03/31 11:06:49;;;;;;;0.20;0.20;;;;;;;24.76;43.49;101093.25;5073134;28;20567;-85
2024/03/31 11:09:15;;;;;;;0.20;0.20;;;;;;;24.94;42.68;101082.59;5055867;28;20024;-85
2024/03/31 11:11:40;;;;;;;0.10;0.10;;;;;;;25.13;42.49;101073.63;5089810;28;20473;-86
2024/03/31 11:14:06;;;;;;;0.13;0.13;;;;;;;25.17;42.44;101061.72;5087820;28;20027;-85
2024/03/31 11:16:32;;;;;;;0.20;0.20;;;;;;;25.15;42.93;101055.78;5089259;28;20032;-84
2024/03/31 11:18:57;;;;;;;0.20;0.20;;;;;;;25.27;41.51;101051.88;5089884;28;20051;-84